Terminal Aerodrome Forecast
Issued by NWS

Home | Current Version | Previous Version | Text Only | Print | Product List | Glossary On
Versions: 1 2 3 4 5 6 7 8 9 10 11 12 13 14 15 16 17 18 19 20 21 22 23
109
FTAK31 PAJN 252340
TAFAYA
TAF
PAYA 252340Z 2600/2624 26006KT P6SM -RA BKN010 OVC020
      TEMPO 2600/2603 3SM -RA BR BKN007 OVC012
     FM260300 26006KT 3SM -RA BR BKN007 OVC020
     FM260700 00000KT 4SM BR SCT007 OVC015
     FM261200 00000KT 4SM BR VCFG FEW015 SCT080
     FM261800 27005KT P6SM SCT090
      AMD LTD TO CLD VIS AND WIND 2601/2609=

USA.gov is the U.S. government's official web portal to all federal, state and local government web resources and services.